createdAt,value
2023-04-02T00:01:49.522Z,5.80
2023-04-02T00:04:22.235Z,5.05
2023-04-02T00:07:10.133Z,5.15
2023-04-02T00:09:37.740Z,3.50
2023-04-02T00:12:15.825Z,3.92
2023-04-02T00:14:45.964Z,4.75
2023-04-02T00:17:12.193Z,5.13
2023-04-02T00:19:42.075Z,3.00
2023-04-02T00:22:12.555Z,3.28
2023-04-02T00:24:39.155Z,5.40
2023-04-02T00:27:09.632Z,6.63
2023-04-02T00:29:36.011Z,5.63
2023-04-02T00:32:02.517Z,6.35
2023-04-02T00:34:31.319Z,5.57
2023-04-02T00:36:58.135Z,5.95
2023-04-02T00:39:26.348Z,6.85
2023-04-02T00:42:05.108Z,5.80
2023-04-02T00:44:32.941Z,5.25
2023-04-02T00:47:04.137Z,6.00
2023-04-02T00:49:37.999Z,6.15
2023-04-02T00:52:15.074Z,6.10
2023-04-02T00:54:45.348Z,6.38
2023-04-02T00:57:14.518Z,4.65
2023-04-02T00:59:50.829Z,6.38
2023-04-02T01:02:19.905Z,6.97
2023-04-02T01:04:53.998Z,7.00
2023-04-02T01:07:24.709Z,6.55
2023-04-02T01:10:23.428Z,4.82
2023-04-02T01:12:59.016Z,6.50
2023-04-02T01:15:27.151Z,6.07
2023-04-02T01:17:59.274Z,5.88
2023-04-02T01:20:44.181Z,7.25
2023-04-02T01:23:24.406Z,6.38
2023-04-02T01:25:58.601Z,5.23
2023-04-02T01:28:43.490Z,5.47
2023-04-02T01:31:10.087Z,4.13
2023-04-02T01:33:36.570Z,5.80
2023-04-02T01:36:11.465Z,4.10
2023-04-02T01:38:44.521Z,5.97
2023-04-02T01:41:16.667Z,5.75
2023-04-02T01:43:55.387Z,5.65
2023-04-02T01:46:26.246Z,4.78
2023-04-02T01:51:29.798Z,2.92
2023-04-02T01:53:58.240Z,3.35
2023-04-02T01:56:26.354Z,3.80
2023-04-02T01:58:52.657Z,5.15
2023-04-02T02:01:21.612Z,5.15
2023-04-02T02:03:49.489Z,5.55
2023-04-02T02:06:16.995Z,5.45
2023-04-02T02:09:01.305Z,5.25
2023-04-02T02:11:29.256Z,4.55
2023-04-02T02:13:59.574Z,4.75
2023-04-02T02:16:29.206Z,4.63
2023-04-02T02:19:00.912Z,5.65
2023-04-02T02:21:38.355Z,4.35
2023-04-02T02:24:06.636Z,4.28
2023-04-02T02:26:35.799Z,3.22
2023-04-02T02:29:03.955Z,5.32
2023-04-02T02:31:33.004Z,4.35
2023-04-02T02:34:02.095Z,4.50
2023-04-02T02:36:33.474Z,5.47
2023-04-02T02:39:07.158Z,4.95
2023-04-02T02:41:43.112Z,5.50
2023-04-02T02:44:09.378Z,4.93
2023-04-02T02:46:37.698Z,5.45
2023-04-02T02:49:04.869Z,4.82
2023-04-02T02:51:44.138Z,3.50
2023-04-02T02:54:10.549Z,4.32
2023-04-02T02:56:40.072Z,4.20
2023-04-02T02:59:07.575Z,4.35
2023-04-02T03:01:34.061Z,3.97
2023-04-02T03:04:00.671Z,4.97
2023-04-02T03:06:27.126Z,4.07
2023-04-02T03:08:59.715Z,5.10
2023-04-02T03:11:49.153Z,4.40
2023-04-02T03:14:35.889Z,4.38
2023-04-02T03:17:10.626Z,3.05
2023-04-02T03:20:01.508Z,5.60
2023-04-02T03:22:35.360Z,4.63
2023-04-02T03:25:22.819Z,4.30
2023-04-02T03:27:51.514Z,4.85
2023-04-02T03:30:30.085Z,3.85
2023-04-02T03:33:17.783Z,3.40
2023-04-02T03:35:52.595Z,4.03
2023-04-02T03:38:22.694Z,4.40
2023-04-02T03:40:52.048Z,5.17
2023-04-02T03:43:23.118Z,5.30
2023-04-02T03:45:51.561Z,5.15
2023-04-02T03:48:27.651Z,3.67
2023-04-02T03:51:02.808Z,4.50
2023-04-02T03:53:29.661Z,4.45
2023-04-02T03:55:56.978Z,3.67
2023-04-02T03:58:38.235Z,5.32
2023-04-02T04:01:04.654Z,4.75
2023-04-02T04:03:39.884Z,5.63
2023-04-02T04:06:16.918Z,3.97
2023-04-02T04:08:43.854Z,3.05
2023-04-02T04:11:13.946Z,4.05
2023-04-02T04:13:44.666Z,5.17
2023-04-02T04:16:19.489Z,4.63
2023-04-02T04:18:52.492Z,4.13
2023-04-02T04:21:30.159Z,4.35
2023-04-02T04:23:57.979Z,4.90
2023-04-02T04:26:30.990Z,4.57
2023-04-02T04:29:25.196Z,4.03
2023-04-02T04:31:55.289Z,2.33
2023-04-02T04:34:25.323Z,3.42
2023-04-02T04:36:56.411Z,4.53
2023-04-02T04:39:29.656Z,2.05
2023-04-02T04:41:57.647Z,1.60
2023-04-02T04:44:35.911Z,1.25
2023-04-02T04:47:03.618Z,2.20
2023-04-02T04:49:29.897Z,2.25
2023-04-02T04:52:08.952Z,2.60
2023-04-02T04:54:37.343Z,2.78
2023-04-02T04:57:04.017Z,2.63
2023-04-02T04:59:52.392Z,1.48
2023-04-02T05:02:23.542Z,2.50
2023-04-02T05:04:51.691Z,2.28
2023-04-02T05:07:32.106Z,2.13
2023-04-02T05:10:08.619Z,1.40
2023-04-02T05:12:41.848Z,1.25
2023-04-02T05:15:17.227Z,1.92
2023-04-02T05:17:43.495Z,1.15
2023-04-02T05:20:16.334Z,1.33
2023-04-02T05:23:02.949Z,1.60
2023-04-02T05:25:30.334Z,1.80
2023-04-02T05:28:01.001Z,1.75
2023-04-02T05:30:27.237Z,1.30
2023-04-02T05:32:57.340Z,0.70
2023-04-02T05:35:25.689Z,1.23
2023-04-02T05:37:52.129Z,1.27
2023-04-02T05:40:22.882Z,0.90
2023-04-02T05:42:50.938Z,0.85
2023-04-02T05:45:23.812Z,1.45
2023-04-02T05:47:51.829Z,0.98
2023-04-02T05:50:23.977Z,1.20
2023-04-02T05:52:53.111Z,1.00
2023-04-02T05:55:19.722Z,1.52
2023-04-02T05:58:13.571Z,1.58
2023-04-02T06:00:47.796Z,1.13
2023-04-02T06:03:27.643Z,1.60
2023-04-02T06:05:56.753Z,0.65
2023-04-02T06:08:45.663Z,1.20
2023-04-02T06:11:13.382Z,1.00
2023-04-02T06:13:39.663Z,1.48
2023-04-02T06:16:06.559Z,1.35
2023-04-02T06:18:34.677Z,1.10
2023-04-02T06:21:01.081Z,1.50
2023-04-02T06:23:33.482Z,1.67
2023-04-02T06:26:18.380Z,0.45
2023-04-02T06:28:53.868Z,0.73
2023-04-02T06:31:27.288Z,1.17
2023-04-02T06:33:55.070Z,0.82
2023-04-02T06:36:22.516Z,1.92
2023-04-02T06:38:49.843Z,1.08
2023-04-02T06:41:21.481Z,0.90
2023-04-02T06:43:53.622Z,1.35
2023-04-02T06:46:22.850Z,0.95
2023-04-02T06:48:50.501Z,1.48
2023-04-02T06:51:18.636Z,1.92
2023-04-02T06:53:46.617Z,1.15
2023-04-02T06:56:31.933Z,1.27
2023-04-02T06:58:58.628Z,1.48
2023-04-02T07:01:29.123Z,1.35
2023-04-02T07:03:56.261Z,1.42
2023-04-02T07:06:22.721Z,1.40
2023-04-02T07:08:49.452Z,1.70
2023-04-02T07:11:18.724Z,1.30
2023-04-02T07:13:47.227Z,1.60
2023-04-02T07:16:21.108Z,2.30
2023-04-02T07:18:48.258Z,1.65
2023-04-02T07:21:14.546Z,1.42
2023-04-02T07:23:40.877Z,1.17
2023-04-02T07:26:07.907Z,1.35
2023-04-02T07:28:34.419Z,0.50
2023-04-02T07:31:01.236Z,1.45
2023-04-02T07:33:28.968Z,2.35
2023-04-02T07:35:56.067Z,1.08
2023-04-02T07:38:22.411Z,1.67
2023-04-02T07:40:48.825Z,1.35
2023-04-02T07:43:15.446Z,1.45
2023-04-02T07:45:41.754Z,1.70
2023-04-02T07:48:08.854Z,1.15
2023-04-02T07:50:35.477Z,1.20
2023-04-02T07:53:01.862Z,2.40
2023-04-02T07:55:28.156Z,1.45
2023-04-02T07:57:58.236Z,1.30
2023-04-02T08:00:25.407Z,1.27
2023-04-02T08:02:52.565Z,1.40
2023-04-02T08:05:19.040Z,1.45
2023-04-02T08:07:52.041Z,1.85
2023-04-02T08:10:19.189Z,1.35
2023-04-02T08:12:45.660Z,1.98
2023-04-02T08:15:14.500Z,1.80
2023-04-02T08:17:40.836Z,1.48
2023-04-02T08:20:07.940Z,1.08
2023-04-02T08:22:34.236Z,1.75
2023-04-02T08:25:00.469Z,1.40
2023-04-02T08:27:26.768Z,1.52
2023-04-02T08:29:53.079Z,1.85
2023-04-02T08:32:19.414Z,1.13
2023-04-02T08:34:46.663Z,2.05
2023-04-02T08:37:13.589Z,0.93
2023-04-02T08:39:40.051Z,1.83
2023-04-02T08:42:24.508Z,2.22
2023-04-02T08:45:10.889Z,0.90
2023-04-02T08:47:49.186Z,2.22
2023-04-02T08:50:21.661Z,0.85
2023-04-02T08:52:47.942Z,1.10
2023-04-02T08:55:28.028Z,1.30
2023-04-02T08:57:57.292Z,1.15
2023-04-02T09:00:44.107Z,0.90
2023-04-02T09:03:14.707Z,1.70
2023-04-02T09:05:42.553Z,0.77
2023-04-02T09:08:22.394Z,0.98
2023-04-02T09:10:57.463Z,1.33
2023-04-02T09:13:24.996Z,1.30
2023-04-02T09:16:01.315Z,1.00
2023-04-02T09:18:30.032Z,1.70
2023-04-02T09:20:56.401Z,1.20
2023-04-02T09:23:23.984Z,1.58
2023-04-02T09:26:03.363Z,0.90
2023-04-02T09:28:30.468Z,0.93
2023-04-02T09:31:01.498Z,0.52
2023-04-02T09:35:55.810Z,0.80
2023-04-02T09:38:31.705Z,1.20
2023-04-02T09:40:58.686Z,0.98
2023-04-02T09:43:35.731Z,0.80
2023-04-02T09:46:04.005Z,0.80
2023-04-02T09:48:39.296Z,1.40
2023-04-02T09:51:05.837Z,0.60
2023-04-02T09:53:51.116Z,0.88
2023-04-02T09:56:24.388Z,0.77
2023-04-02T09:59:09.568Z,0.75
2023-04-02T10:01:37.371Z,0.88
2023-04-02T10:04:06.040Z,0.60
2023-04-02T10:06:33.268Z,1.15
2023-04-02T10:09:18.930Z,1.00
2023-04-02T10:11:46.986Z,0.90
2023-04-02T10:14:21.514Z,0.88
2023-04-02T10:16:53.548Z,0.73
2023-04-02T10:19:40.299Z,1.10
2023-04-02T10:22:12.849Z,0.95
2023-04-02T10:24:39.667Z,0.88
2023-04-02T10:27:22.369Z,0.75
2023-04-02T10:29:58.219Z,1.20
2023-04-02T10:32:24.464Z,0.80
2023-04-02T10:34:59.770Z,0.85
2023-04-02T10:37:44.580Z,0.70
2023-04-02T10:40:10.885Z,1.40
2023-04-02T10:42:53.094Z,0.88
2023-04-02T10:45:22.431Z,0.82
2023-04-02T10:48:05.801Z,0.90
2023-04-02T10:50:47.012Z,1.20
2023-04-02T10:53:21.149Z,0.93
2023-04-02T10:55:55.271Z,0.80
2023-04-02T10:58:26.343Z,1.10
2023-04-02T11:01:01.358Z,0.93
2023-04-02T11:03:39.823Z,1.90
2023-04-02T11:06:14.023Z,0.95
2023-04-02T11:08:40.390Z,1.35
2023-04-02T11:11:18.431Z,1.23
2023-04-02T11:13:56.649Z,1.02
2023-04-02T11:16:23.478Z,1.00
2023-04-02T11:19:28.395Z,1.13
2023-04-02T11:22:00.020Z,1.17
2023-04-02T11:24:29.945Z,1.30
2023-04-02T11:27:05.387Z,0.80
2023-04-02T11:29:32.594Z,1.10
2023-04-02T11:32:17.668Z,1.42
2023-04-02T11:34:43.876Z,1.05
2023-04-02T11:37:28.859Z,0.80
2023-04-02T11:39:57.231Z,1.23
2023-04-02T11:42:25.415Z,0.80
2023-04-02T11:44:52.480Z,1.02
2023-04-02T11:47:21.826Z,1.17
2023-04-02T11:49:54.364Z,0.73
2023-04-02T11:52:23.161Z,1.30
2023-04-02T11:55:00.461Z,0.98
2023-04-02T11:57:30.655Z,0.93
2023-04-02T12:00:04.985Z,1.27
2023-04-02T12:02:46.006Z,1.33
2023-04-02T12:05:19.324Z,0.95
2023-04-02T12:08:05.797Z,1.02
2023-04-02T12:10:34.281Z,0.90
2023-04-02T12:13:00.606Z,0.93
2023-04-02T12:15:33.670Z,0.95
2023-04-02T12:18:06.304Z,0.95
2023-04-02T12:20:32.805Z,0.90
2023-04-02T12:22:59.382Z,1.30
2023-04-02T12:25:33.664Z,1.08
2023-04-02T12:28:09.447Z,1.33
2023-04-02T12:30:37.068Z,1.20
2023-04-02T12:33:17.151Z,1.13
2023-04-02T12:35:44.091Z,1.20
2023-04-02T12:38:21.741Z,1.13
2023-04-02T12:40:51.547Z,0.95
2023-04-02T12:43:44.298Z,0.83
2023-04-02T12:46:12.674Z,1.13
2023-04-02T12:48:39.452Z,1.10
2023-04-02T12:51:05.969Z,0.73
2023-04-02T12:53:37.266Z,0.80
2023-04-02T12:56:03.846Z,1.20
2023-04-02T12:58:37.738Z,1.20
2023-04-02T13:01:28.158Z,0.90
2023-04-02T13:04:08.363Z,1.30
2023-04-02T13:06:35.592Z,1.35
2023-04-02T13:09:03.236Z,1.30
2023-04-02T13:11:40.271Z,1.00
2023-04-02T13:14:08.432Z,0.95
2023-04-02T13:16:36.153Z,1.20
2023-04-02T13:19:11.375Z,1.60
2023-04-02T13:21:38.007Z,1.70
2023-04-02T13:24:04.379Z,1.30
2023-04-02T13:26:30.614Z,1.23
2023-04-02T13:29:01.077Z,0.82
2023-04-02T13:31:28.008Z,0.95
2023-04-02T13:33:54.289Z,0.90
2023-04-02T13:36:20.662Z,0.75
2023-04-02T13:38:47.110Z,1.00
2023-04-02T13:41:27.417Z,0.90
2023-04-02T13:43:54.832Z,1.33
2023-04-02T13:46:22.416Z,1.20
2023-04-02T13:48:49.954Z,1.15
2023-04-02T13:51:20.699Z,1.17
2023-04-02T13:53:52.531Z,1.20
2023-04-02T13:56:19.528Z,1.00
2023-04-02T13:58:46.456Z,0.90
2023-04-02T14:01:13.320Z,1.20
2023-04-02T14:03:40.583Z,1.23
2023-04-02T14:06:08.318Z,1.00
2023-04-02T14:08:42.959Z,1.00
2023-04-02T14:11:21.485Z,1.00
2023-04-02T14:13:55.210Z,0.90
2023-04-02T14:16:28.070Z,1.30
2023-04-02T14:19:06.320Z,0.90
2023-04-02T14:21:37.925Z,1.40
2023-04-02T14:24:10.073Z,1.10
2023-04-02T14:26:44.062Z,0.82
2023-04-02T14:29:21.711Z,0.80
2023-04-02T14:32:05.470Z,0.88
2023-04-02T14:34:36.050Z,0.90
2023-04-02T14:37:13.868Z,0.88
2023-04-02T14:39:49.805Z,0.95
2023-04-02T14:42:18.453Z,1.00
2023-04-02T14:44:48.732Z,0.75
2023-04-02T14:47:18.451Z,0.90
2023-04-02T14:49:46.725Z,0.80
2023-04-02T14:52:18.777Z,0.95
2023-04-02T14:54:50.115Z,1.00
2023-04-02T14:57:24.462Z,0.90
2023-04-02T14:59:50.808Z,1.00
2023-04-02T15:02:22.280Z,1.10
2023-04-02T15:04:56.717Z,0.93
2023-04-02T15:07:25.520Z,1.10
2023-04-02T15:10:06.279Z,1.08
2023-04-02T15:12:35.172Z,0.90
2023-04-02T15:15:08.487Z,0.98
2023-04-02T15:17:36.063Z,0.90
2023-04-02T15:20:11.884Z,0.95
2023-04-02T15:22:43.905Z,1.13
2023-04-02T15:25:26.907Z,1.17
2023-04-02T15:28:05.950Z,0.88
2023-04-02T15:30:35.780Z,1.00
2023-04-02T15:33:20.933Z,1.42
2023-04-02T15:35:51.046Z,1.00
2023-04-02T15:38:23.408Z,1.70
2023-04-02T15:41:08.803Z,0.93
2023-04-02T15:43:40.943Z,1.13
2023-04-02T15:46:13.399Z,0.95
2023-04-02T15:48:58.411Z,1.17
2023-04-02T15:51:32.828Z,0.98
2023-04-02T15:54:11.358Z,0.80
2023-04-02T15:56:55.955Z,1.20
2023-04-02T15:59:28.328Z,0.55
2023-04-02T16:02:13.371Z,1.02
2023-04-02T16:04:42.652Z,1.30
2023-04-02T16:07:28.026Z,1.23
2023-04-02T16:09:57.180Z,1.15
2023-04-02T16:12:25.591Z,0.82
2023-04-02T16:14:53.248Z,0.73
2023-04-02T16:17:25.638Z,1.00
2023-04-02T16:19:56.979Z,0.98
2023-04-02T16:22:30.368Z,1.00
2023-04-02T16:25:13.381Z,1.55
2023-04-02T16:27:50.237Z,0.80
2023-04-02T16:30:28.580Z,0.90
2023-04-02T16:33:15.053Z,1.10
2023-04-02T16:36:00.035Z,1.00
2023-04-02T16:38:45.213Z,1.30
2023-04-02T16:41:16.752Z,1.08
2023-04-02T16:44:07.521Z,1.23
2023-04-02T16:46:41.300Z,1.60
2023-04-02T16:49:13.495Z,1.10
2023-04-02T16:51:42.950Z,1.20
2023-04-02T16:54:13.385Z,1.35
2023-04-02T16:56:51.698Z,1.52
2023-04-02T16:59:18.036Z,1.23
2023-04-02T17:01:50.323Z,1.77
2023-04-02T17:04:19.461Z,1.02
2023-04-02T17:07:10.324Z,1.10
2023-04-02T17:09:51.452Z,1.27
2023-04-02T17:12:21.979Z,0.80
2023-04-02T17:14:52.295Z,1.02
2023-04-02T17:17:20.045Z,1.20
2023-04-02T17:19:47.519Z,2.08
2023-04-02T17:22:17.747Z,1.17
2023-04-02T17:24:57.577Z,1.67
2023-04-02T17:27:27.004Z,1.20
2023-04-02T17:29:58.665Z,1.20
2023-04-02T17:32:36.942Z,0.90
2023-04-02T17:35:16.969Z,1.25
2023-04-02T17:37:47.619Z,1.30
2023-04-02T17:40:26.509Z,1.33
2023-04-02T17:43:01.975Z,1.10
2023-04-02T17:45:32.974Z,1.02
2023-04-02T17:48:04.555Z,1.42
2023-04-02T17:50:42.291Z,1.17
2023-04-02T17:53:21.566Z,1.40
2023-04-02T17:56:26.669Z,1.60
2023-04-02T17:59:04.192Z,1.35
2023-04-02T18:01:33.486Z,1.33
2023-04-02T18:03:59.828Z,1.52
2023-04-02T18:06:28.887Z,1.35
2023-04-02T18:08:57.915Z,1.10
2023-04-02T18:11:36.377Z,1.20
2023-04-02T18:14:05.690Z,1.42
2023-04-02T18:16:49.665Z,1.88
2023-04-02T18:19:16.389Z,0.90
2023-04-02T18:21:43.476Z,1.00
2023-04-02T18:24:12.878Z,1.10
2023-04-02T18:26:58.163Z,1.30
2023-04-02T18:29:33.593Z,1.58
2023-04-02T18:32:15.211Z,0.98
2023-04-02T18:34:42.278Z,1.50
2023-04-02T18:37:27.107Z,1.30
2023-04-02T18:39:59.676Z,1.70
2023-04-02T18:42:37.528Z,2.42
2023-04-02T18:45:11.062Z,2.17
2023-04-02T18:47:52.661Z,2.00
2023-04-02T18:50:22.012Z,2.30
2023-04-02T18:52:50.214Z,2.35
2023-04-02T18:55:16.518Z,1.92
2023-04-02T18:57:44.857Z,2.10
2023-04-02T19:00:29.538Z,1.90
2023-04-02T19:02:56.399Z,1.50
2023-04-02T19:05:35.110Z,1.95
2023-04-02T19:08:16.472Z,1.67
2023-04-02T19:10:47.205Z,1.48
2023-04-02T19:13:18.180Z,1.55
2023-04-02T19:16:03.257Z,1.77
2023-04-02T19:18:47.548Z,2.08
2023-04-02T19:21:16.653Z,1.60
2023-04-02T19:23:46.483Z,1.45
2023-04-02T19:26:15.437Z,1.90
2023-04-02T19:28:52.782Z,1.63
2023-04-02T19:31:28.801Z,1.80
2023-04-02T19:34:10.233Z,1.30
2023-04-02T19:36:42.652Z,1.73
2023-04-02T19:39:12.030Z,1.25
2023-04-02T19:41:38.310Z,1.75
2023-04-02T19:44:07.948Z,1.67
2023-04-02T19:46:34.305Z,1.67
2023-04-02T19:49:22.777Z,1.55
2023-04-02T19:51:49.776Z,1.48
2023-04-02T19:54:16.260Z,1.48
2023-04-02T19:56:42.590Z,1.40
2023-04-02T19:59:17.719Z,1.30
2023-04-02T20:01:44.962Z,1.48
2023-04-02T20:04:11.296Z,1.38
2023-04-02T20:06:37.598Z,1.45
2023-04-02T20:09:03.838Z,1.60
2023-04-02T20:11:30.735Z,1.42
2023-04-02T20:13:57.079Z,1.40
2023-04-02T20:16:23.460Z,1.40
2023-04-02T20:18:51.310Z,1.42
2023-04-02T20:21:17.594Z,1.20
2023-04-02T20:23:43.929Z,1.50
2023-04-02T20:26:10.448Z,1.55
2023-04-02T20:28:36.818Z,1.52
2023-04-02T20:31:09.981Z,1.38
2023-04-02T20:33:37.221Z,1.40
2023-04-02T20:36:05.783Z,1.50
2023-04-02T20:38:33.214Z,1.23
2023-04-02T20:41:00.175Z,1.50
2023-04-02T20:43:28.372Z,1.63
2023-04-02T20:45:59.102Z,1.10
2023-04-02T20:48:27.328Z,1.27
2023-04-02T20:50:54.236Z,1.25
2023-04-02T20:53:20.903Z,1.33
2023-04-02T20:55:47.278Z,1.40
2023-04-02T20:58:17.330Z,1.50
2023-04-02T21:00:43.972Z,0.90
2023-04-02T21:03:10.552Z,0.98
2023-04-02T21:05:43.974Z,1.40
2023-04-02T21:08:10.496Z,1.83
2023-04-02T21:10:37.009Z,1.05
2023-04-02T21:13:03.569Z,1.00
2023-04-02T21:15:29.937Z,1.40
2023-04-02T21:17:56.398Z,0.90
2023-04-02T21:20:22.930Z,0.93
2023-04-02T21:22:49.316Z,1.20
2023-04-02T21:25:15.835Z,1.00
2023-04-02T21:27:42.156Z,1.00
2023-04-02T21:30:08.666Z,1.27
2023-04-02T21:32:35.178Z,1.23
2023-04-02T21:35:01.497Z,1.08
2023-04-02T21:37:27.813Z,1.02
2023-04-02T21:39:54.195Z,0.80
2023-04-02T21:42:20.837Z,1.02
2023-04-02T21:44:47.124Z,1.00
2023-04-02T21:47:13.600Z,1.17
2023-04-02T21:49:40.059Z,1.20
2023-04-02T21:52:06.457Z,0.98
2023-04-02T21:54:32.792Z,1.05
2023-04-02T21:56:59.663Z,1.05
2023-04-02T21:59:26.155Z,1.13
2023-04-02T22:01:52.730Z,0.85
2023-04-02T22:04:20.276Z,0.90
2023-04-02T22:06:46.665Z,1.52
2023-04-02T22:09:14.089Z,0.80
2023-04-02T22:11:42.143Z,1.33
2023-04-02T22:14:08.478Z,0.77
2023-04-02T22:16:35.303Z,0.80
2023-04-02T22:19:03.252Z,1.00
2023-04-02T22:21:30.328Z,1.20
2023-04-02T22:23:58.686Z,0.90
2023-04-02T22:26:24.968Z,0.90
2023-04-02T22:28:52.605Z,0.82
2023-04-02T22:31:20.516Z,0.85
2023-04-02T22:33:47.440Z,1.55
2023-04-02T22:36:14.404Z,0.88
2023-04-02T22:38:41.180Z,0.95
2023-04-02T22:41:11.971Z,1.50
2023-04-02T22:43:39.052Z,1.10
2023-04-02T22:46:06.862Z,0.90
2023-04-02T22:48:33.601Z,1.27
2023-04-02T22:50:59.939Z,0.98
2023-04-02T22:53:26.514Z,0.90
2023-04-02T22:55:53.324Z,1.05
2023-04-02T22:58:20.067Z,1.10
2023-04-02T23:00:46.731Z,1.10
2023-04-02T23:03:13.190Z,1.30
2023-04-02T23:05:39.773Z,1.15
2023-04-02T23:08:06.974Z,1.20
2023-04-02T23:10:33.281Z,1.00
2023-04-02T23:12:59.587Z,0.80
2023-04-02T23:15:26.008Z,0.90
2023-04-02T23:17:52.355Z,1.00
2023-04-02T23:20:18.737Z,0.93
2023-04-02T23:22:45.295Z,1.42
2023-04-02T23:25:11.613Z,1.05
2023-04-02T23:27:37.982Z,1.20
2023-04-02T23:30:04.986Z,0.68
2023-04-02T23:32:31.352Z,1.13
2023-04-02T23:34:57.706Z,0.85
2023-04-02T23:37:24.032Z,1.17
2023-04-02T23:39:50.422Z,0.93
2023-04-02T23:42:17.670Z,1.30
2023-04-02T23:44:43.940Z,0.85
2023-04-02T23:47:10.530Z,1.02
2023-04-02T23:49:36.997Z,1.23
2023-04-02T23:52:03.316Z,1.60
2023-04-02T23:54:29.590Z,0.90
2023-04-02T23:56:55.868Z,1.00
2023-04-02T23:59:22.114Z,0.85
